sensor_id;sensor_type;location;lat;lon;timestamp;pressure;altitude;pressure_sealevel;temperature;humidity
21240;BME280;10778;48.962;9.018;2023-12-20T00:01:50;99148.16;;;2.64;100.00
21240;BME280;10778;48.962;9.018;2023-12-20T00:04:16;99150.00;;;2.62;100.00
21240;BME280;10778;48.962;9.018;2023-12-20T00:06:42;99144.63;;;2.65;100.00
21240;BME280;10778;48.962;9.018;2023-12-20T00:09:08;99136.41;;;2.73;100.00
21240;BME280;10778;48.962;9.018;2023-12-20T00:11:34;99133.81;;;2.73;100.00
21240;BME280;10778;48.962;9.018;2023-12-20T00:14:00;99125.00;;;2.75;100.00
21240;BME280;10778;48.962;9.018;2023-12-20T00:16:25;99116.84;;;2.81;100.00
21240;BME280;10778;48.962;9.018;2023-12-20T00:18:52;99114.38;;;2.80;100.00
21240;BME280;10778;48.962;9.018;2023-12-20T00:21:18;99111.94;;;2.77;100.00
21240;BME280;10778;48.962;9.018;2023-12-20T00:23:44;99103.41;;;2.75;100.00
21240;BME280;10778;48.962;9.018;2023-12-20T00:26:10;99107.75;;;2.74;100.00
21240;BME280;10778;48.962;9.018;2023-12-20T00:28:35;99101.72;;;2.74;100.00
21240;BME280;10778;48.962;9.018;2023-12-20T00:31:02;99107.84;;;2.73;100.00
21240;BME280;10778;48.962;9.018;2023-12-20T00:33:28;99111.28;;;2.73;100.00
21240;BME280;10778;48.962;9.018;2023-12-20T00:35:53;99113.22;;;2.69;100.00
21240;BME280;10778;48.962;9.018;2023-12-20T00:38:19;99114.97;;;2.69;100.00
21240;BME280;10778;48.962;9.018;2023-12-20T00:40:46;99112.66;;;2.64;100.00
21240;BME280;10778;48.962;9.018;2023-12-20T00:43:12;99110.31;;;2.60;100.00
21240;BME280;10778;48.962;9.018;2023-12-20T00:45:37;99110.22;;;2.61;100.00
21240;BME280;10778;48.962;9.018;2023-12-20T00:48:04;99106.78;;;2.61;100.00
21240;BME280;10778;48.962;9.018;2023-12-20T00:50:31;99110.78;;;2.66;100.00
21240;BME280;10778;48.962;9.018;2023-12-20T00:52:57;99110.13;;;2.63;100.00
21240;BME280;10778;48.962;9.018;2023-12-20T00:55:22;99107.09;;;2.70;100.00
21240;BME280;10778;48.962;9.018;2023-12-20T00:57:48;99106.53;;;2.65;100.00
21240;BME280;10778;48.962;9.018;2023-12-20T01:00:15;99102.81;;;2.69;100.00
21240;BME280;10778;48.962;9.018;2023-12-20T01:02:41;99099.28;;;2.70;100.00
21240;BME280;10778;48.962;9.018;2023-12-20T01:05:07;99109.63;;;2.72;100.00
21240;BME280;10778;48.962;9.018;2023-12-20T01:07:35;99099.13;;;2.74;100.00
21240;BME280;10778;48.962;9.018;2023-12-20T01:10:01;99107.69;;;2.76;100.00
21240;BME280;10778;48.962;9.018;2023-12-20T01:12:27;99111.09;;;2.76;100.00
21240;BME280;10778;48.962;9.018;2023-12-20T01:14:53;99104.22;;;2.75;100.00
21240;BME280;10778;48.962;9.018;2023-12-20T01:17:19;99107.56;;;2.77;100.00
21240;BME280;10778;48.962;9.018;2023-12-20T01:19:45;99114.44;;;2.78;100.00
21240;BME280;10778;48.962;9.018;2023-12-20T01:22:11;99116.28;;;2.76;100.00
21240;BME280;10778;48.962;9.018;2023-12-20T01:24:37;99105.44;;;3.00;100.00
21240;BME280;10778;48.962;9.018;2023-12-20T01:27:03;99101.81;;;3.17;100.00
21240;BME280;10778;48.962;9.018;2023-12-20T01:29:29;99110.84;;;3.26;100.00
21240;BME280;10778;48.962;9.018;2023-12-20T01:31:55;99107.25;;;3.43;100.00
21240;BME280;10778;48.962;9.018;2023-12-20T01:34:21;99113.47;;;3.55;100.00
21240;BME280;10778;48.962;9.018;2023-12-20T01:36:47;99104.28;;;3.64;100.00
21240;BME280;10778;48.962;9.018;2023-12-20T01:39:13;99102.28;;;3.67;100.00
21240;BME280;10778;48.962;9.018;2023-12-20T01:41:39;99096.72;;;3.74;100.00
21240;BME280;10778;48.962;9.018;2023-12-20T01:44:05;99090.31;;;3.79;100.00
21240;BME280;10778;48.962;9.018;2023-12-20T01:46:31;99091.41;;;3.90;100.00
21240;BME280;10778;48.962;9.018;2023-12-20T01:48:57;99097.06;;;3.96;100.00
21240;BME280;10778;48.962;9.018;2023-12-20T01:51:23;99100.34;;;3.86;100.00
21240;BME280;10778;48.962;9.018;2023-12-20T01:53:50;99095.59;;;3.92;100.00
21240;BME280;10778;48.962;9.018;2023-12-20T01:56:16;99092.78;;;3.95;100.00
21240;BME280;10778;48.962;9.018;2023-12-20T01:58:44;99092.78;;;3.95;100.00
21240;BME280;10778;48.962;9.018;2023-12-20T02:01:11;99093.53;;;3.97;100.00
21240;BME280;10778;48.962;9.018;2023-12-20T02:03:37;99087.59;;;3.95;100.00
21240;BME280;10778;48.962;9.018;2023-12-20T02:06:05;99092.13;;;4.06;100.00
21240;BME280;10778;48.962;9.018;2023-12-20T02:08:31;99097.13;;;4.09;100.00
21240;BME280;10778;48.962;9.018;2023-12-20T02:10:57;99092.97;;;4.07;100.00
21240;BME280;10778;48.962;9.018;2023-12-20T02:13:23;99096.09;;;4.12;100.00
21240;BME280;10778;48.962;9.018;2023-12-20T02:15:49;99096.31;;;4.09;100.00
21240;BME280;10778;48.962;9.018;2023-12-20T02:18:15;99095.56;;;4.07;100.00
21240;BME280;10778;48.962;9.018;2023-12-20T02:20:42;99093.78;;;4.07;100.00
21240;BME280;10778;48.962;9.018;2023-12-20T02:23:08;99096.19;;;4.10;100.00
21240;BME280;10778;48.962;9.018;2023-12-20T02:25:34;99095.09;;;4.15;100.00
21240;BME280;10778;48.962;9.018;2023-12-20T02:28:01;99090.16;;;4.10;100.00
21240;BME280;10778;48.962;9.018;2023-12-20T02:30:27;99092.75;;;4.10;100.00
21240;BME280;10778;48.962;9.018;2023-12-20T02:32:53;99094.63;;;4.08;100.00
21240;BME280;10778;48.962;9.018;2023-12-20T02:35:19;99100.78;;;4.07;100.00
21240;BME280;10778;48.962;9.018;2023-12-20T02:37:45;99096.94;;;4.12;100.00
21240;BME280;10778;48.962;9.018;2023-12-20T02:40:11;99096.94;;;4.12;100.00
21240;BME280;10778;48.962;9.018;2023-12-20T02:42:37;99101.41;;;4.10;100.00
21240;BME280;10778;48.962;9.018;2023-12-20T02:45:04;99104.84;;;4.11;100.00
21240;BME280;10778;48.962;9.018;2023-12-20T02:47:30;99092.97;;;4.07;100.00
21240;BME280;10778;48.962;9.018;2023-12-20T02:49:56;99089.50;;;4.06;100.00
21240;BME280;10778;48.962;9.018;2023-12-20T02:52:25;99093.91;;;4.06;100.00
21240;BME280;10778;48.962;9.018;2023-12-20T02:54:51;99090.56;;;4.04;100.00
21240;BME280;10778;48.962;9.018;2023-12-20T02:57:17;99096.03;;;3.99;100.00
21240;BME280;10778;48.962;9.018;2023-12-20T02:59:43;99092.78;;;3.95;100.00
21240;BME280;10778;48.962;9.018;2023-12-20T03:02:09;99097.25;;;3.93;100.00
21240;BME280;10778;48.962;9.018;2023-12-20T03:04:35;99094.84;;;3.90;100.00
21240;BME280;10778;48.962;9.018;2023-12-20T03:07:01;99085.84;;;3.96;100.00
21240;BME280;10778;48.962;9.018;2023-12-20T03:09:27;99101.34;;;3.97;100.00
21240;BME280;10778;48.962;9.018;2023-12-20T03:11:53;99099.59;;;3.98;100.00
21240;BME280;10778;48.962;9.018;2023-12-20T03:14:18;99108.53;;;3.94;100.00
21240;BME280;10778;48.962;9.018;2023-12-20T03:16:51;99104.41;;;3.90;100.00
21240;BME280;10778;48.962;9.018;2023-12-20T03:19:17;99106.94;;;3.91;100.00
21240;BME280;10778;48.962;9.018;2023-12-20T03:21:44;99117.44;;;3.90;100.00
21240;BME280;10778;48.962;9.018;2023-12-20T03:24:10;99109.53;;;3.91;100.00
21240;BME280;10778;48.962;9.018;2023-12-20T03:26:36;99114.81;;;3.90;100.00
21240;BME280;10778;48.962;9.018;2023-12-20T03:29:02;99117.53;;;3.88;100.00
21240;BME280;10778;48.962;9.018;2023-12-20T03:31:28;99110.81;;;3.84;100.00
21240;BME280;10778;48.962;9.018;2023-12-20T03:33:54;99108.69;;;3.91;100.00
21240;BME280;10778;48.962;9.018;2023-12-20T03:36:20;99115.47;;;3.93;100.00
21240;BME280;10778;48.962;9.018;2023-12-20T03:38:46;99112.13;;;3.91;100.00
21240;BME280;10778;48.962;9.018;2023-12-20T03:41:13;99116.69;;;3.88;100.00
21240;BME280;10778;48.962;9.018;2023-12-20T03:43:39;99109.06;;;3.84;100.00
21240;BME280;10778;48.962;9.018;2023-12-20T03:46:05;99102.19;;;3.83;100.00
21240;BME280;10778;48.962;9.018;2023-12-20T03:48:31;99108.81;;;3.89;100.00
21240;BME280;10778;48.962;9.018;2023-12-20T03:50:57;99126.44;;;3.84;100.00
21240;BME280;10778;48.962;9.018;2023-12-20T03:53:23;99134.56;;;3.79;100.00
21240;BME280;10778;48.962;9.018;2023-12-20T03:55:49;99139.66;;;3.81;100.00
21240;BME280;10778;48.962;9.018;2023-12-20T03:58:15;99129.03;;;3.84;100.00
21240;BME280;10778;48.962;9.018;2023-12-20T04:00:41;99124.97;;;3.80;100.00
21240;BME280;10778;48.962;9.018;2023-12-20T04:03:07;99105.19;;;3.77;100.00
21240;BME280;10778;48.962;9.018;2023-12-20T04:05:33;99106.09;;;3.76;100.00
21240;BME280;10778;48.962;9.018;2023-12-20T04:08:01;99099.78;;;3.80;100.00
21240;BME280;10778;48.962;9.018;2023-12-20T04:10:27;99124.41;;;3.75;100.00
21240;BME280;10778;48.962;9.018;2023-12-20T04:12:53;99122.09;;;3.70;100.00
21240;BME280;10778;48.962;9.018;2023-12-20T04:15:20;99114.09;;;3.73;100.00
21240;BME280;10778;48.962;9.018;2023-12-20T04:17:46;99128.88;;;3.73;100.00
21240;BME280;10778;48.962;9.018;2023-12-20T04:20:12;99124.63;;;3.72;100.00
21240;BME280;10778;48.962;9.018;2023-12-20T04:22:38;99121.81;;;3.75;100.00
21240;BME280;10778;48.962;9.018;2023-12-20T04:25:04;99132.50;;;3.70;100.00
21240;BME280;10778;48.962;9.018;2023-12-20T04:27:30;99145.50;;;3.70;100.00
21240;BME280;10778;48.962;9.018;2023-12-20T04:29:56;99157.50;;;3.73;100.00
21240;BME280;10778;48.962;9.018;2023-12-20T04:32:22;99165.41;;;3.71;100.00
21240;BME280;10778;48.962;9.018;2023-12-20T04:34:48;99161.25;;;3.68;100.00
21240;BME280;10778;48.962;9.018;2023-12-20T04:37:14;99160.13;;;3.73;100.00
21240;BME280;10778;48.962;9.018;2023-12-20T04:39:40;99156.31;;;3.78;100.00
21240;BME280;10778;48.962;9.018;2023-12-20T04:42:07;99156.94;;;3.82;100.00
21240;BME280;10778;48.962;9.018;2023-12-20T04:44:33;99158.16;;;3.76;100.00
21240;BME280;10778;48.962;9.018;2023-12-20T04:46:59;99157.25;;;3.77;100.00
21240;BME280;10778;48.962;9.018;2023-12-20T04:49:25;99167.34;;;3.82;100.00
21240;BME280;10778;48.962;9.018;2023-12-20T04:51:51;99165.88;;;3.78;100.00
21240;BME280;10778;48.962;9.018;2023-12-20T04:54:17;99166.53;;;3.81;100.00
21240;BME280;10778;48.962;9.018;2023-12-20T04:56:43;99168.94;;;3.84;100.00
21240;BME280;10778;48.962;9.018;2023-12-20T04:59:09;99167.81;;;3.89;100.00
21240;BME280;10778;48.962;9.018;2023-12-20T05:01:35;99171.06;;;3.92;100.00
21240;BME280;10778;48.962;9.018;2023-12-20T05:04:01;99170.88;;;3.95;100.00
21240;BME280;10778;48.962;9.018;2023-12-20T05:06:27;99178.88;;;3.92;100.00
21240;BME280;10778;48.962;9.018;2023-12-20T05:08:53;99182.41;;;3.91;100.00
21240;BME280;10778;48.962;9.018;2023-12-20T05:11:19;99183.16;;;3.93;100.00
21240;BME280;10778;48.962;9.018;2023-12-20T05:13:45;99175.34;;;3.93;100.00
21240;BME280;10778;48.962;9.018;2023-12-20T05:16:11;99179.63;;;3.94;100.00
21240;BME280;10778;48.962;9.018;2023-12-20T05:18:37;99187.44;;;3.94;100.00
21240;BME280;10778;48.962;9.018;2023-12-20T05:21:04;99190.78;;;3.96;100.00
21240;BME280;10778;48.962;9.018;2023-12-20T05:23:30;99190.59;;;3.99;100.00
21240;BME280;10778;48.962;9.018;2023-12-20T05:25:56;99192.25;;;4.01;100.00
21240;BME280;10778;48.962;9.018;2023-12-20T05:28:22;99199.06;;;4.03;100.00
21240;BME280;10778;48.962;9.018;2023-12-20T05:30:48;99206.41;;;3.96;100.00
21240;BME280;10778;48.962;9.018;2023-12-20T05:33:14;99206.50;;;3.95;100.00
21240;BME280;10778;48.962;9.018;2023-12-20T05:35:40;99199.50;;;3.95;100.00
21240;BME280;10778;48.962;9.018;2023-12-20T05:38:06;99202.22;;;3.94;100.00
21240;BME280;10778;48.962;9.018;2023-12-20T05:40:32;99203.97;;;3.93;100.00
21240;BME280;10778;48.962;9.018;2023-12-20T05:42:58;99209.84;;;3.97;100.00
21240;BME280;10778;48.962;9.018;2023-12-20T05:45:24;99209.75;;;3.98;100.00
21240;BME280;10778;48.962;9.018;2023-12-20T05:47:50;99211.41;;;3.99;100.00
21240;BME280;10778;48.962;9.018;2023-12-20T05:50:16;99216.63;;;3.99;100.00
21240;BME280;10778;48.962;9.018;2023-12-20T05:52:42;99227.69;;;4.03;100.00
21240;BME280;10778;48.962;9.018;2023-12-20T05:55:08;99232.16;;;4.01;100.00
21240;BME280;10778;48.962;9.018;2023-12-20T05:57:34;99230.47;;;4.00;100.00
21240;BME280;10778;48.962;9.018;2023-12-20T06:00:00;99241.81;;;3.99;100.00
21240;BME280;10778;48.962;9.018;2023-12-20T06:02:26;99240.78;;;4.02;100.00
21240;BME280;10778;48.962;9.018;2023-12-20T06:04:52;99245.25;;;3.99;100.00
21240;BME280;10778;48.962;9.018;2023-12-20T06:07:19;99254.84;;;3.99;100.00
21240;BME280;10778;48.962;9.018;2023-12-20T06:09:45;99246.91;;;4.01;100.00
21240;BME280;10778;48.962;9.018;2023-12-20T06:12:11;99255.66;;;3.99;100.00
21240;BME280;10778;48.962;9.018;2023-12-20T06:14:37;99251.78;;;4.07;100.00
21240;BME280;10778;48.962;9.018;2023-12-20T06:17:02;99258.00;;;4.04;100.00
21240;BME280;10778;48.962;9.018;2023-12-20T06:19:29;99261.63;;;4.02;100.00
21240;BME280;10778;48.962;9.018;2023-12-20T06:21:55;99259.78;;;4.04;100.00
21240;BME280;10778;48.962;9.018;2023-12-20T06:24:21;99266.06;;;3.99;100.00
21240;BME280;10778;48.962;9.018;2023-12-20T06:26:47;99256.13;;;4.06;100.00
21240;BME280;10778;48.962;9.018;2023-12-20T06:29:13;99264.13;;;4.03;100.00
21240;BME280;10778;48.962;9.018;2023-12-20T06:31:39;99259.94;;;4.01;100.00
21240;BME280;10778;48.962;9.018;2023-12-20T06:34:05;99259.66;;;4.05;100.00
21240;BME280;10778;48.962;9.018;2023-12-20T06:36:31;99275.22;;;4.07;100.00
21240;BME280;10778;48.962;9.018;2023-12-20T06:38:57;99275.84;;;4.10;100.00
21240;BME280;10778;48.962;9.018;2023-12-20T06:41:23;99279.50;;;4.08;100.00
21240;BME280;10778;48.962;9.018;2023-12-20T06:43:50;99272.63;;;4.07;100.00
21240;BME280;10778;48.962;9.018;2023-12-20T06:46:17;99279.38;;;4.09;100.00
21240;BME280;10778;48.962;9.018;2023-12-20T06:48:43;99287.13;;;4.11;100.00
21240;BME280;10778;48.962;9.018;2023-12-20T06:51:14;99288.13;;;4.08;100.00
21240;BME280;10778;48.962;9.018;2023-12-20T06:53:40;99280.97;;;4.12;100.00
21240;BME280;10778;48.962;9.018;2023-12-20T06:56:06;99288.13;;;4.08;100.00
21240;BME280;10778;48.962;9.018;2023-12-20T06:58:33;99292.50;;;4.08;100.00
21240;BME280;10778;48.962;9.018;2023-12-20T07:00:59;99303.94;;;4.05;100.00
21240;BME280;10778;48.962;9.018;2023-12-20T07:03:25;99301.06;;;4.10;100.00
21240;BME280;10778;48.962;9.018;2023-12-20T07:05:50;99304.78;;;4.06;100.00
21240;BME280;10778;48.962;9.018;2023-12-20T07:08:16;99304.97;;;4.03;100.00
21240;BME280;10778;48.962;9.018;2023-12-20T07:10:42;99310.94;;;4.05;100.00
21240;BME280;10778;48.962;9.018;2023-12-20T07:13:08;99314.53;;;4.02;100.00
21240;BME280;10778;48.962;9.018;2023-12-20T07:15:34;99314.16;;;4.08;100.00
21240;BME280;10778;48.962;9.018;2023-12-20T07:18:02;99323.00;;;4.06;100.00
21240;BME280;10778;48.962;9.018;2023-12-20T07:20:28;99327.91;;;4.10;100.00
21240;BME280;10778;48.962;9.018;2023-12-20T07:22:54;99323.84;;;4.06;100.00
21240;BME280;10778;48.962;9.018;2023-12-20T07:25:20;99324.97;;;4.17;100.00
21240;BME280;10778;48.962;9.018;2023-12-20T07:27:46;99323.78;;;4.22;100.00
21240;BME280;10778;48.962;9.018;2023-12-20T07:30:12;99320.03;;;4.12;100.00
21240;BME280;10778;48.962;9.018;2023-12-20T07:32:38;99319.38;;;4.23;100.00
21240;BME280;10778;48.962;9.018;2023-12-20T07:35:05;99327.75;;;4.13;100.00
21240;BME280;10778;48.962;9.018;2023-12-20T07:37:31;99332.78;;;4.17;100.00
21240;BME280;10778;48.962;9.018;2023-12-20T07:39:57;99341.63;;;4.29;100.00
21240;BME280;10778;48.962;9.018;2023-12-20T07:42:23;99347.56;;;4.16;100.00
21240;BME280;10778;48.962;9.018;2023-12-20T07:44:49;99339.41;;;4.22;100.00
21240;BME280;10778;48.962;9.018;2023-12-20T07:47:15;99335.13;;;4.21;100.00
21240;BME280;10778;48.962;9.018;2023-12-20T07:49:50;99338.34;;;4.25;100.00
21240;BME280;10778;48.962;9.018;2023-12-20T07:52:18;99344.41;;;4.25;100.00
21240;BME280;10778;48.962;9.018;2023-12-20T07:54:45;99347.94;;;4.24;100.00
21240;BME280;10778;48.962;9.018;2023-12-20T07:57:11;99358.34;;;4.10;100.00
21240;BME280;10778;48.962;9.018;2023-12-20T07:59:38;99361.03;;;4.08;100.00
21240;BME280;10778;48.962;9.018;2023-12-20T08:02:04;99361.69;;;4.12;100.00
21240;BME280;10778;48.962;9.018;2023-12-20T08:04:30;99368.09;;;4.06;100.00
21240;BME280;10778;48.962;9.018;2023-12-20T08:06:56;99371.88;;;4.01;100.00
21240;BME280;10778;48.962;9.018;2023-12-20T08:09:22;99375.81;;;4.08;100.00
21240;BME280;10778;48.962;9.018;2023-12-20T08:11:48;99375.06;;;4.65;100.00
21240;BME280;10778;48.962;9.018;2023-12-20T08:14:15;99370.16;;;5.17;100.00
21240;BME280;10778;48.962;9.018;2023-12-20T08:16:41;99360.75;;;5.42;100.00
21240;BME280;10778;48.962;9.018;2023-12-20T08:19:07;99370.69;;;6.31;100.00
21240;BME280;10778;48.962;9.018;2023-12-20T08:21:33;99369.53;;;6.74;99.97
21240;BME280;10778;48.962;9.018;2023-12-20T08:23:59;99355.41;;;7.14;96.64
21240;BME280;10778;48.962;9.018;2023-12-20T08:26:28;99350.47;;;7.46;95.37
21240;BME280;10778;48.962;9.018;2023-12-20T08:28:54;99352.28;;;7.33;92.42
21240;BME280;10778;48.962;9.018;2023-12-20T08:31:20;99364.06;;;5.72;99.53
21240;BME280;10778;48.962;9.018;2023-12-20T08:33:48;99366.25;;;6.96;98.25
21240;BME280;10778;48.962;9.018;2023-12-20T08:36:14;99361.25;;;7.42;94.91
21240;BME280;10778;48.962;9.018;2023-12-20T08:38:40;99359.97;;;8.19;91.38
21240;BME280;10778;48.962;9.018;2023-12-20T08:41:06;99369.44;;;7.13;93.31
21240;BME280;10778;48.962;9.018;2023-12-20T08:43:34;99372.53;;;7.55;93.79
21240;BME280;10778;48.962;9.018;2023-12-20T08:46:01;99362.19;;;8.48;88.05
21240;BME280;10778;48.962;9.018;2023-12-20T08:48:28;99367.03;;;8.30;89.11
21240;BME280;10778;48.962;9.018;2023-12-20T08:50:54;99371.81;;;8.47;87.42
21240;BME280;10778;48.962;9.018;2023-12-20T08:53:20;99368.41;;;8.81;86.31
21240;BME280;10778;48.962;9.018;2023-12-20T08:55:46;99373.63;;;9.15;83.66
21240;BME280;10778;48.962;9.018;2023-12-20T08:58:13;99370.44;;;8.77;84.40
21240;BME280;10778;48.962;9.018;2023-12-20T09:00:39;99372.00;;;8.80;84.13
21240;BME280;10778;48.962;9.018;2023-12-20T09:03:05;99361.22;;;9.06;82.88
21240;BME280;10778;48.962;9.018;2023-12-20T09:05:31;99365.69;;;8.82;82.74
21240;BME280;10778;48.962;9.018;2023-12-20T09:07:57;99356.97;;;8.71;82.59
21240;BME280;10778;48.962;9.018;2023-12-20T09:10:23;99359.84;;;8.79;83.66
21240;BME280;10778;48.962;9.018;2023-12-20T09:12:50;99363.16;;;8.70;83.33
21240;BME280;10778;48.962;9.018;2023-12-20T09:15:17;99371.41;;;8.53;83.46
21240;BME280;10778;48.962;9.018;2023-12-20T09:17:43;99354.44;;;8.92;83.28
21240;BME280;10778;48.962;9.018;2023-12-20T09:20:09;99357.75;;;8.37;83.08
21240;BME280;10778;48.962;9.018;2023-12-20T09:22:35;99360.63;;;8.34;83.08
21240;BME280;10778;48.962;9.018;2023-12-20T09:25:04;99374.28;;;8.15;84.30
21240;BME280;10778;48.962;9.018;2023-12-20T09:27:31;99370.03;;;7.89;83.99
21240;BME280;10778;48.962;9.018;2023-12-20T09:29:57;99364.81;;;7.89;82.22
21240;BME280;10778;48.962;9.018;2023-12-20T09:32:23;99355.63;;;8.42;82.21
21240;BME280;10778;48.962;9.018;2023-12-20T09:34:49;99371.53;;;8.75;80.60
21240;BME280;10778;48.962;9.018;2023-12-20T09:37:15;99362.75;;;8.40;80.80
21240;BME280;10778;48.962;9.018;2023-12-20T09:39:41;99362.28;;;8.46;81.16
21240;BME280;10778;48.962;9.018;2023-12-20T09:42:07;99365.16;;;8.43;80.36
21240;BME280;10778;48.962;9.018;2023-12-20T09:44:33;99367.50;;;8.23;78.42
21240;BME280;10778;48.962;9.018;2023-12-20T09:47:03;99375.50;;;7.86;80.13
21240;BME280;10778;48.962;9.018;2023-12-20T09:49:30;99379.50;;;7.67;81.11
21240;BME280;10778;48.962;9.018;2023-12-20T09:51:56;99387.91;;;8.31;79.51
21240;BME280;10778;48.962;9.018;2023-12-20T09:54:23;99372.44;;;7.92;78.80
21240;BME280;10778;48.962;9.018;2023-12-20T09:56:49;99379.41;;;8.28;78.07
21240;BME280;10778;48.962;9.018;2023-12-20T09:59:15;99394.53;;;8.13;79.24
21240;BME280;10778;48.962;9.018;2023-12-20T10:01:42;99388.13;;;8.28;78.86
21240;BME280;10778;48.962;9.018;2023-12-20T10:04:10;99383.94;;;8.61;75.64
21240;BME280;10778;48.962;9.018;2023-12-20T10:06:42;99381.91;;;8.65;75.75
21240;BME280;10778;48.962;9.018;2023-12-20T10:09:09;99381.53;;;8.70;75.90
21240;BME280;10778;48.962;9.018;2023-12-20T10:11:37;99387.66;;;8.23;77.27
21240;BME280;10778;48.962;9.018;2023-12-20T10:14:07;99375.09;;;8.04;77.72
21240;BME280;10778;48.962;9.018;2023-12-20T10:16:33;99374.47;;;8.81;76.54
21240;BME280;10778;48.962;9.018;2023-12-20T10:19:00;99368.41;;;8.70;76.33
21240;BME280;10778;48.962;9.018;2023-12-20T10:21:30;99366.56;;;8.47;75.44
21240;BME280;10778;48.962;9.018;2023-12-20T10:23:57;99371.19;;;8.21;77.56
21240;BME280;10778;48.962;9.018;2023-12-20T10:26:27;99365.38;;;8.40;76.40
21240;BME280;10778;48.962;9.018;2023-12-20T10:28:54;99357.84;;;8.13;77.49
21240;BME280;10778;48.962;9.018;2023-12-20T10:31:28;99362.91;;;7.91;77.29
21240;BME280;10778;48.962;9.018;2023-12-20T10:33:58;99352.69;;;8.11;77.52
21240;BME280;10778;48.962;9.018;2023-12-20T10:36:26;99357.00;;;8.12;77.06
21240;BME280;10778;48.962;9.018;2023-12-20T10:38:55;99357.44;;;7.94;77.60
21240;BME280;10778;48.962;9.018;2023-12-20T10:41:30;99353.28;;;7.92;76.18
21240;BME280;10778;48.962;9.018;2023-12-20T10:44:03;99357.06;;;7.88;76.75
21240;BME280;10778;48.962;9.018;2023-12-20T10:46:33;99362.94;;;7.67;75.65
21240;BME280;10778;48.962;9.018;2023-12-20T10:49:02;99347.50;;;7.75;76.05
21240;BME280;10778;48.962;9.018;2023-12-20T10:51:29;99346.84;;;7.36;78.09
21240;BME280;10778;48.962;9.018;2023-12-20T10:53:56;99359.25;;;7.21;76.89
21240;BME280;10778;48.962;9.018;2023-12-20T10:56:22;99352.19;;;7.10;76.98
21240;BME280;10778;48.962;9.018;2023-12-20T10:58:51;99349.16;;;7.03;76.36
21240;BME280;10778;48.962;9.018;2023-12-20T11:01:18;99350.03;;;6.91;77.33
21240;BME280;10778;48.962;9.018;2023-12-20T11:03:54;99344.91;;;6.89;78.24
21240;BME280;10778;48.962;9.018;2023-12-20T11:06:47;99342.50;;;7.23;78.24
21240;BME280;10778;48.962;9.018;2023-12-20T11:09:35;99334.31;;;6.91;79.49
21240;BME280;10778;48.962;9.018;2023-12-20T11:12:15;99339.09;;;7.10;79.80
21240;BME280;10778;48.962;9.018;2023-12-20T11:14:48;99342.84;;;7.43;79.54
21240;BME280;10778;48.962;9.018;2023-12-20T11:17:14;99340.84;;;6.72;80.17
21240;BME280;10778;48.962;9.018;2023-12-20T11:22:31;99330.53;;;6.06;86.63
21240;BME280;10778;48.962;9.018;2023-12-20T11:25:07;99332.97;;;5.81;87.63
21240;BME280;10778;48.962;9.018;2023-12-20T11:27:37;99329.19;;;5.60;88.43
21240;BME280;10778;48.962;9.018;2023-12-20T11:30:06;99331.75;;;5.47;88.39
21240;BME280;10778;48.962;9.018;2023-12-20T11:32:36;99333.13;;;5.52;89.12
21240;BME280;10778;48.962;9.018;2023-12-20T11:37:38;99340.56;;;5.59;90.00
21240;BME280;10778;48.962;9.018;2023-12-20T11:40:11;99340.16;;;5.37;89.93
21240;BME280;10778;48.962;9.018;2023-12-20T11:42:38;99334.09;;;5.24;90.36
21240;BME280;10778;48.962;9.018;2023-12-20T11:45:05;99319.91;;;6.09;87.08
21240;BME280;10778;48.962;9.018;2023-12-20T11:47:34;99319.19;;;5.79;87.75
21240;BME280;10778;48.962;9.018;2023-12-20T11:50:00;99324.09;;;5.71;89.46
21240;BME280;10778;48.962;9.018;2023-12-20T11:52:29;99319.59;;;5.73;89.43
21240;BME280;10778;48.962;9.018;2023-12-20T11:54:57;99310.81;;;5.61;87.69
21240;BME280;10778;48.962;9.018;2023-12-20T11:57:23;99306.84;;;5.68;88.56
21240;BME280;10778;48.962;9.018;2023-12-20T11:59:49;99310.53;;;5.66;86.67
21240;BME280;10778;48.962;9.018;2023-12-20T12:02:15;99305.91;;;5.57;86.91
21240;BME280;10778;48.962;9.018;2023-12-20T12:04:41;99300.81;;;5.68;86.77
21240;BME280;10778;48.962;9.018;2023-12-20T12:07:07;99302.63;;;5.53;85.85
21240;BME280;10778;48.962;9.018;2023-12-20T12:09:34;99304.22;;;5.55;86.55
21240;BME280;10778;48.962;9.018;2023-12-20T12:12:00;99303.69;;;6.04;84.59
21240;BME280;10778;48.962;9.018;2023-12-20T12:14:27;99293.97;;;6.06;83.88
21240;BME280;10778;48.962;9.018;2023-12-20T12:16:53;99295.25;;;6.13;84.15
21240;BME280;10778;48.962;9.018;2023-12-20T12:19:23;99306.09;;;5.53;86.24
21240;BME280;10778;48.962;9.018;2023-12-20T12:21:50;99300.41;;;5.74;85.51
21240;BME280;10778;48.962;9.018;2023-12-20T12:24:20;99302.66;;;6.19;83.13
21240;BME280;10778;48.962;9.018;2023-12-20T12:26:57;99296.19;;;6.12;82.76
21240;BME280;10778;48.962;9.018;2023-12-20T12:29:23;99294.66;;;5.69;84.22
21240;BME280;10778;48.962;9.018;2023-12-20T12:31:50;99301.00;;;5.65;85.69
21240;BME280;10778;48.962;9.018;2023-12-20T12:34:19;99300.28;;;5.35;87.50
21240;BME280;10778;48.962;9.018;2023-12-20T12:36:45;99289.53;;;5.27;88.65
21240;BME280;10778;48.962;9.018;2023-12-20T12:39:12;99294.03;;;5.25;88.88
21240;BME280;10778;48.962;9.018;2023-12-20T12:41:41;99299.81;;;5.56;88.76
21240;BME280;10778;48.962;9.018;2023-12-20T12:44:07;99292.91;;;5.82;87.56
21240;BME280;10778;48.962;9.018;2023-12-20T12:46:33;99301.34;;;5.86;86.35
21240;BME280;10778;48.962;9.018;2023-12-20T12:48:59;99301.41;;;6.12;85.96
21240;BME280;10778;48.962;9.018;2023-12-20T12:51:25;99301.25;;;6.01;86.08
21240;BME280;10778;48.962;9.018;2023-12-20T12:53:53;99299.88;;;5.82;85.58
21240;BME280;10778;48.962;9.018;2023-12-20T12:56:19;99295.13;;;6.28;84.22
21240;BME280;10778;48.962;9.018;2023-12-20T12:58:45;99290.50;;;6.44;83.95
21240;BME280;10778;48.962;9.018;2023-12-20T13:01:11;99276.84;;;6.28;83.39
21240;BME280;10778;48.962;9.018;2023-12-20T13:03:37;99287.69;;;6.21;83.86
21240;BME280;10778;48.962;9.018;2023-12-20T13:06:04;99287.56;;;5.71;86.17
21240;BME280;10778;48.962;9.018;2023-12-20T13:08:32;99303.84;;;5.75;85.81